Time;durP1;ratioP1;P1;durP2;ratioP2;P2;SDS_P1;SDS_P2;PMS_P1;PMS_P2;Temp;Humidity;BMP_temperature;BMP_pressure;BME280_temperature;BME280_humidity;BME280_pressure;Samples;Min_cycle;Max_cycle;Signal;HPM_P1;HPM_P2
2022/07/11 00:00:14;;;;;;;;;;;;;;;26.21;44.19;99632.84;2058916;28;19927;-48
2022/07/11 00:01:15;;;;;;;;;;;;;;;26.20;44.41;99637.53;2058607;28;20403;-49
2022/07/11 00:02:15;;;;;;;;;;;;;;;26.20;44.47;99637.53;2060889;28;19917;-48
2022/07/11 00:03:16;;;;;;;;;;;;;;;26.20;44.44;99632.00;2059591;28;19956;-48
2022/07/11 00:04:16;;;;;;;;;;;;;;;26.20;44.19;99636.69;2061126;28;19931;-48
2022/07/11 00:05:16;;;;;;;;;;;;;;;26.20;44.41;99636.69;2059156;28;20048;-50
2022/07/11 00:06:17;;;;;;;;;;;;;;;26.21;44.22;99635.63;2059380;28;19953;-51
2022/07/11 00:07:17;;;;;;;;;;;;;;;26.20;44.49;99636.69;2060874;28;19956;-50
2022/07/11 00:08:17;;;;;;;;;;;;;;;26.20;44.43;99636.69;2058760;28;19982;-48
2022/07/11 00:09:17;;;;;;;;;;;;;;;26.21;44.53;99638.38;2061309;28;19925;-47
2022/07/11 00:10:18;;;;;;;;;;;;;;;26.20;44.29;99636.69;2060061;28;19919;-47
2022/07/11 00:11:18;;;;;;;;;;;;;;;26.19;44.27;99629.44;2058556;28;19921;-47
2022/07/11 00:12:20;;;;;;;;;;;;;;;26.20;44.55;99636.69;2053607;28;21036;-47
2022/07/11 00:13:20;;;;;;;;;;;;;;;26.20;44.53;99636.69;2051577;28;20023;-48
2022/07/11 00:14:24;;;;;;;;;;;;;;;26.19;44.27;99638.59;2048583;28;19922;-51
2022/07/11 00:15:24;;;;;;;;;;;;;;;26.20;44.28;99631.16;2053121;28;19914;-48
2022/07/11 00:16:25;;;;;;;;;;;;;;;26.20;44.50;99636.69;2062688;28;20313;-48
2022/07/11 00:17:25;;;;;;;;;;;;;;;26.20;44.49;99637.53;2058666;28;19910;-50
2022/07/11 00:18:26;;;;;;;;;;;;;;;26.19;44.40;99626.69;2051776;28;19926;-50
2022/07/11 00:19:26;;;;;;;;;;;;;;;26.19;44.40;99634.97;2052160;28;20056;-48
2022/07/11 00:20:26;;;;;;;;;;;;;;;26.19;44.37;99633.09;2052895;28;19968;-49
2022/07/11 00:21:27;;;;;;;;;;;;;;;26.20;44.47;99643.06;2051863;28;19914;-48
2022/07/11 00:22:27;;;;;;;;;;;;;;;26.19;44.62;99635.84;2055544;28;19926;-50
2022/07/11 00:23:27;;;;;;;;;;;;;;;26.19;44.65;99633.09;2056951;28;20035;-50
2022/07/11 00:24:29;;;;;;;;;;;;;;;26.19;44.61;99635.84;2057420;28;19917;-50
2022/07/11 00:25:29;;;;;;;;;;;;;;;26.20;44.41;99639.44;2060262;28;19944;-48
2022/07/11 00:26:29;;;;;;;;;;;;;;;26.20;44.64;99636.69;2052454;28;19909;-47
2022/07/11 00:27:30;;;;;;;;;;;;;;;26.20;44.33;99634.78;2059636;28;19922;-48
2022/07/11 00:28:30;;;;;;;;;;;;;;;26.19;44.58;99634.97;2061268;28;20135;-47
2022/07/11 00:29:31;;;;;;;;;;;;;;;26.20;44.35;99631.16;2060198;28;19917;-50
2022/07/11 00:30:31;;;;;;;;;;;;;;;26.19;44.62;99629.44;2060436;28;19956;-48
2022/07/11 00:31:32;;;;;;;;;;;;;;;26.19;44.37;99634.97;2058669;28;19925;-49
2022/07/11 00:32:32;;;;;;;;;;;;;;;26.20;44.66;99631.16;2061088;28;19933;-48
2022/07/11 00:33:33;;;;;;;;;;;;;;;26.20;44.40;99642.22;2050654;28;19996;-50
2022/07/11 00:34:33;;;;;;;;;;;;;;;26.18;44.69;99634.13;2052743;28;19920;-50
2022/07/11 00:35:33;;;;;;;;;;;;;;;26.18;44.70;99636.03;2053138;28;19918;-48
2022/07/11 00:36:33;;;;;;;;;;;;;;;26.19;44.72;99637.72;2052152;28;19917;-49
2022/07/11 00:37:34;;;;;;;;;;;;;;;26.19;44.57;99634.97;2053589;28;19918;-48
2022/07/11 00:38:34;;;;;;;;;;;;;;;26.18;44.73;99633.28;2056112;28;19956;-47
2022/07/11 00:39:36;;;;;;;;;;;;;;;26.19;44.46;99634.97;2061702;28;19921;-48
2022/07/11 00:40:36;;;;;;;;;;;;;;;26.18;44.48;99633.28;2057640;28;19918;-48
2022/07/11 00:41:36;;;;;;;;;;;;;;;26.17;44.84;99629.66;2059820;28;19918;-50
2022/07/11 00:42:37;;;;;;;;;;;;;;;26.18;44.52;99627.75;2061390;28;20108;-49
2022/07/11 00:43:38;;;;;;;;;;;;;;;26.19;44.76;99634.97;2058505;28;19928;-49
2022/07/11 00:44:38;;;;;;;;;;;;;;;26.18;44.50;99631.38;2060719;28;20344;-51
2022/07/11 00:45:38;;;;;;;;;;;;;;;26.18;44.50;99625.84;2059779;28;19917;-50
2022/07/11 00:46:39;;;;;;;;;;;;;;;26.18;44.57;99625.84;2059177;28;19971;-48
2022/07/11 00:47:39;;;;;;;;;;;;;;;26.17;44.50;99621.38;2060696;28;19952;-47
2022/07/11 00:48:39;;;;;;;;;;;;;;;26.17;44.53;99620.53;2046488;28;20323;-48
2022/07/11 00:49:40;;;;;;;;;;;;;;;26.17;44.51;99620.53;2044787;28;20150;-50
2022/07/11 00:50:40;;;;;;;;;;;;;;;26.18;44.64;99616.69;2051388;28;19918;-48
2022/07/11 00:51:41;;;;;;;;;;;;;;;26.17;44.75;99615.84;2051363;28;20520;-46
2022/07/11 00:52:42;;;;;;;;;;;;;;;26.17;44.63;99620.53;2060924;28;19940;-46
2022/07/11 00:53:42;;;;;;;;;;;;;;;26.16;44.58;99622.44;2058610;28;19917;-45
2022/07/11 00:54:44;;;;;;;;;;;;;;;26.16;44.79;99613.28;2059318;28;19922;-48
2022/07/11 00:55:45;;;;;;;;;;;;;;;26.16;44.82;99613.28;2051619;28;19972;-47
2022/07/11 00:56:46;;;;;;;;;;;;;;;26.16;44.68;99613.28;2057936;28;19953;-47
2022/07/11 00:57:46;;;;;;;;;;;;;;;26.16;44.89;99610.53;2059583;28;19914;-45
2022/07/11 00:58:50;;;;;;;;;;;;;;;26.16;44.65;99607.78;2057648;28;20047;-45
2022/07/11 00:59:50;;;;;;;;;;;;;;;26.16;44.61;99610.53;2058211;28;19928;-46
2022/07/11 01:00:51;;;;;;;;;;;;;;;26.15;44.84;99606.06;2057248;28;20443;-45
2022/07/11 01:01:51;;;;;;;;;;;;;;;26.15;44.58;99600.56;2056066;28;20244;-49
2022/07/11 01:02:51;;;;;;;;;;;;;;;26.15;44.80;99609.69;2059586;28;19917;-47
2022/07/11 01:03:52;;;;;;;;;;;;;;;26.15;44.59;99606.91;2049792;28;20337;-48
2022/07/11 01:04:52;;;;;;;;;;;;;;;26.15;44.59;99598.63;2056691;28;19924;-51
2022/07/11 01:05:53;;;;;;;;;;;;;;;26.15;44.59;99606.06;2051379;28;20335;-48
2022/07/11 01:06:53;;;;;;;;;;;;;;;26.15;44.61;99600.56;2059278;28;19927;-48
2022/07/11 01:07:54;;;;;;;;;;;;;;;26.15;44.52;99600.56;2060767;28;19917;-48
2022/07/11 01:08:55;;;;;;;;;;;;;;;26.15;44.50;99600.56;2053515;28;19914;-47
2022/07/11 01:09:55;;;;;;;;;;;;;;;26.15;44.59;99603.31;2056686;28;20633;-47
2022/07/11 01:10:55;;;;;;;;;;;;;;;26.15;44.87;99597.78;2059145;28;19932;-52
2022/07/11 01:11:55;;;;;;;;;;;;;;;26.15;44.57;99597.78;2056131;28;19984;-50
2022/07/11 01:12:56;;;;;;;;;;;;;;;26.14;44.54;99599.72;2058363;28;19999;-48
2022/07/11 01:13:56;;;;;;;;;;;;;;;26.14;44.51;99598.84;2054683;28;19920;-50
2022/07/11 01:14:59;;;;;;;;;;;;;;;26.14;44.52;99609.88;2055925;28;19949;-48
2022/07/11 01:16:08;;;;;;;;;;;;;;;26.14;44.44;99598.84;2057615;28;19945;-50
2022/07/11 01:17:08;;;;;;;;;;;;;;;26.15;44.54;99600.56;2053810;28;19924;-48
2022/07/11 01:18:08;;;;;;;;;;;;;;;26.13;44.37;99598.00;2057185;28;20235;-48
2022/07/11 01:19:09;;;;;;;;;;;;;;;26.14;44.61;99593.31;2057203;28;19969;-48
2022/07/11 01:20:10;;;;;;;;;;;;;;;26.14;44.29;99593.31;2053695;28;19961;-48
2022/07/11 01:21:18;;;;;;;;;;;;;;;26.15;44.53;99592.28;2058726;28;20259;-49
2022/07/11 01:22:21;;;;;;;;;;;;;;;26.13;44.47;99592.47;2055804;28;19921;-50
2022/07/11 01:23:21;;;;;;;;;;;;;;;26.15;44.27;99592.28;2052865;28;19924;-50
2022/07/11 01:24:22;;;;;;;;;;;;;;;26.14;44.15;99594.19;2058232;28;19939;-47
2022/07/11 01:25:31;;;;;;;;;;;;;;;26.13;44.37;99592.47;2053316;28;20468;-51
2022/07/11 01:26:32;;;;;;;;;;;;;;;26.13;44.45;99592.47;2053911;28;19924;-48
2022/07/11 01:27:34;;;;;;;;;;;;;;;26.14;44.38;99590.53;2062388;28;19917;-49
2022/07/11 01:28:34;;;;;;;;;;;;;;;26.13;44.15;99586.94;2062983;28;19924;-47
2022/07/11 01:29:34;;;;;;;;;;;;;;;26.13;44.31;99588.84;2060242;28;19916;-49
2022/07/11 01:30:35;;;;;;;;;;;;;;;26.13;44.23;99586.09;2063819;28;20434;-52
2022/07/11 01:31:39;;;;;;;;;;;;;;;26.13;44.29;99592.47;2060451;28;19910;-48
2022/07/11 01:32:40;;;;;;;;;;;;;;;26.12;44.08;99585.25;2061682;28;19917;-48
2022/07/11 01:33:41;;;;;;;;;;;;;;;26.12;44.05;99584.41;2054892;28;19944;-48
2022/07/11 01:34:41;;;;;;;;;;;;;;;26.13;44.01;99583.34;2059913;28;20297;-47
2022/07/11 01:35:41;;;;;;;;;;;;;;;26.12;44.39;99584.41;2062045;28;19923;-49
2022/07/11 01:36:42;;;;;;;;;;;;;;;26.13;44.00;99594.38;2060982;28;19910;-49
2022/07/11 01:37:43;;;;;;;;;;;;;;;26.11;44.02;99586.28;2061455;28;19972;-47
2022/07/11 01:38:43;;;;;;;;;;;;;;;26.11;44.19;99586.28;2061753;28;19924;-48
2022/07/11 01:39:43;;;;;;;;;;;;;;;26.11;44.21;99583.53;2061468;28;20245;-48
2022/07/11 01:40:43;;;;;;;;;;;;;;;26.13;44.29;99580.56;2061289;28;20313;-49
2022/07/11 01:41:44;;;;;;;;;;;;;;;26.12;44.10;99584.41;2058459;28;19913;-48
2022/07/11 01:42:44;;;;;;;;;;;;;;;26.12;44.16;99576.97;2060489;28;19948;-48
2022/07/11 01:43:44;;;;;;;;;;;;;;;26.11;44.09;99579.91;2053946;28;20068;-49
2022/07/11 01:44:44;;;;;;;;;;;;;;;26.12;44.11;99574.19;2058954;28;19971;-47
2022/07/11 01:45:45;;;;;;;;;;;;;;;26.12;44.11;99578.88;2053300;28;19913;-49
2022/07/11 01:46:45;;;;;;;;;;;;;;;26.12;44.07;99579.72;2058592;28;20429;-48
2022/07/11 01:47:45;;;;;;;;;;;;;;;26.11;44.11;99574.41;2057504;28;19918;-53
2022/07/11 01:48:45;;;;;;;;;;;;;;;26.11;44.08;99578.00;2056590;28;19910;-48
2022/07/11 01:49:46;;;;;;;;;;;;;;;26.12;44.17;99581.66;2059776;28;20032;-49
2022/07/11 01:50:46;;;;;;;;;;;;;;;26.12;44.27;99573.34;2055939;28;19993;-48
2022/07/11 01:51:47;;;;;;;;;;;;;;;26.12;44.33;99576.13;2058301;28;20532;-46
2022/07/11 01:52:47;;;;;;;;;;;;;;;26.13;44.29;99569.53;2059631;28;19910;-49
2022/07/11 01:53:48;;;;;;;;;;;;;;;26.12;44.33;99579.72;2056335;28;19924;-47
2022/07/11 01:54:48;;;;;;;;;;;;;;;26.12;44.25;99581.66;2060594;28;19949;-48
2022/07/11 01:55:49;;;;;;;;;;;;;;;26.11;44.47;99578.00;2058056;28;20232;-50
2022/07/11 01:56:50;;;;;;;;;;;;;;;26.12;44.25;99581.66;2056538;28;19922;-50
2022/07/11 01:57:50;;;;;;;;;;;;;;;26.12;44.58;99578.88;2062771;28;19963;-48
2022/07/11 01:58:50;;;;;;;;;;;;;;;26.11;44.38;99578.00;2060901;28;20348;-49
2022/07/11 01:59:51;;;;;;;;;;;;;;;26.11;44.35;99575.25;2056331;28;19925;-48
2022/07/11 02:00:51;;;;;;;;;;;;;;;26.12;44.32;99589.94;2059906;28;20362;-50
2022/07/11 02:01:52;;;;;;;;;;;;;;;26.12;44.34;99584.41;2061520;28;19917;-48
2022/07/11 02:02:53;;;;;;;;;;;;;;;26.11;44.39;99578.00;2059829;28;19918;-47
2022/07/11 02:03:55;;;;;;;;;;;;;;;26.12;44.39;99581.66;2057426;28;19925;-48
2022/07/11 02:04:55;;;;;;;;;;;;;;;26.11;44.41;99577.16;2052674;28;19953;-49
2022/07/11 02:05:56;;;;;;;;;;;;;;;26.10;44.67;99573.56;2055319;28;19964;-50
2022/07/11 02:06:56;;;;;;;;;;;;;;;26.11;44.53;99568.88;2060869;28;20038;-51
2022/07/11 02:08:12;;;;;;;;;;;;;;;26.10;44.40;99573.56;2064334;28;19917;-49
2022/07/11 02:09:12;;;;;;;;;;;;;;;26.11;44.47;99568.88;2057311;28;20659;-48
2022/07/11 02:10:12;;;;;;;;;;;;;;;26.11;44.54;99574.41;2060987;28;20068;-48
2022/07/11 02:11:12;;;;;;;;;;;;;;;26.11;44.67;99571.63;2062648;28;20025;-48
2022/07/11 02:12:13;;;;;;;;;;;;;;;26.12;44.68;99570.59;2053651;28;20000;-48
2022/07/11 02:13:14;;;;;;;;;;;;;;;26.11;44.38;99571.63;2061473;28;20332;-49
2022/07/11 02:14:15;;;;;;;;;;;;;;;26.11;44.82;99566.13;2061089;28;19924;-48
2022/07/11 02:15:15;;;;;;;;;;;;;;;26.09;44.71;99567.19;2059694;28;20452;-47
2022/07/11 02:16:16;;;;;;;;;;;;;;;26.11;44.71;99571.63;2061770;28;20284;-50
2022/07/11 02:17:16;;;;;;;;;;;;;;;26.11;44.62;99560.59;2059980;28;19921;-48
2022/07/11 02:18:17;;;;;;;;;;;;;;;26.11;44.77;99566.13;2058093;28;19917;-49
2022/07/11 02:19:17;;;;;;;;;;;;;;;26.12;44.71;99573.34;2061890;28;20841;-48
2022/07/11 02:20:19;;;;;;;;;;;;;;;26.11;44.57;99566.13;2058121;28;20362;-49
2022/07/11 02:21:19;;;;;;;;;;;;;;;26.11;44.79;99568.88;2060164;28;20277;-51
2022/07/11 02:22:19;;;;;;;;;;;;;;;26.11;44.57;99566.13;2059014;28;19922;-47
2022/07/11 02:23:20;;;;;;;;;;;;;;;26.11;44.72;99566.97;2058348;28;19910;-51
2022/07/11 02:24:20;;;;;;;;;;;;;;;26.11;44.57;99571.63;2061354;28;19932;-48
2022/07/11 02:25:22;;;;;;;;;;;;;;;26.11;44.83;99566.97;2056990;28;19960;-48
2022/07/11 02:26:22;;;;;;;;;;;;;;;26.09;44.65;99561.66;2059819;28;19914;-48
2022/07/11 02:27:23;;;;;;;;;;;;;;;26.10;44.54;99565.28;2054105;28;19936;-48
2022/07/11 02:28:23;;;;;;;;;;;;;;;26.11;44.68;99560.59;2060984;28;20474;-49
2022/07/11 02:29:23;;;;;;;;;;;;;;;26.10;44.67;99559.75;2061032;28;19921;-48
2022/07/11 02:30:24;;;;;;;;;;;;;;;26.09;44.65;99558.91;2061129;28;19921;-47
2022/07/11 02:31:25;;;;;;;;;;;;;;;26.09;44.72;99558.03;2053156;28;19988;-49
2022/07/11 02:32:25;;;;;;;;;;;;;;;26.09;44.97;99558.03;2053058;28;20368;-48
2022/07/11 02:33:26;;;;;;;;;;;;;;;26.09;44.61;99563.53;2059969;28;19917;-48
2022/07/11 02:34:27;;;;;;;;;;;;;;;26.09;45.02;99560.78;2061621;28;19921;-50
2022/07/11 02:35:28;;;;;;;;;;;;;;;26.08;44.71;99562.69;2050787;28;20188;-50
2022/07/11 02:36:28;;;;;;;;;;;;;;;26.08;44.70;99562.69;2052555;28;19922;-48
2022/07/11 02:37:28;;;;;;;;;;;;;;;26.08;44.72;99565.47;2058865;28;20250;-49
2022/07/11 02:38:28;;;;;;;;;;;;;;;26.08;44.99;99564.63;2060840;28;19921;-48
2022/07/11 02:39:29;;;;;;;;;;;;;;;26.08;44.79;99562.69;2061966;28;20250;-46
2022/07/11 02:40:29;;;;;;;;;;;;;;;26.07;44.93;99569.31;2059344;28;20171;-47
2022/07/11 02:41:29;;;;;;;;;;;;;;;26.08;44.77;99559.94;2061892;28;19929;-47
2022/07/11 02:42:29;;;;;;;;;;;;;;;26.08;44.95;99564.63;2054742;28;19917;-47
2022/07/11 02:43:30;;;;;;;;;;;;;;;26.08;44.77;99561.88;2053419;28;19914;-47
2022/07/11 02:44:30;;;;;;;;;;;;;;;26.08;44.79;99562.69;2059360;28;19917;-49
2022/07/11 02:45:31;;;;;;;;;;;;;;;26.07;45.02;99558.25;2050569;28;19916;-50
2022/07/11 02:46:32;;;;;;;;;;;;;;;26.08;44.99;99557.19;2044564;28;19950;-48
2022/07/11 02:47:32;;;;;;;;;;;;;;;26.07;44.93;99561.00;2058415;28;19983;-50
2022/07/11 02:48:32;;;;;;;;;;;;;;;26.08;44.87;99556.34;2059335;28;20999;-48
2022/07/11 02:49:32;;;;;;;;;;;;;;;26.08;44.82;99559.94;2053881;28;20336;-48
2022/07/11 02:50:33;;;;;;;;;;;;;;;26.09;44.77;99569.94;2057230;28;20224;-48
2022/07/11 02:51:33;;;;;;;;;;;;;;;26.08;44.82;99557.19;2061783;28;20011;-47
2022/07/11 02:52:34;;;;;;;;;;;;;;;26.08;44.84;99559.94;2056548;28;19925;-48
2022/07/11 02:53:34;;;;;;;;;;;;;;;26.09;44.79;99563.53;2055005;28;19924;-47
2022/07/11 02:54:34;;;;;;;;;;;;;;;26.07;44.78;99561.00;2059293;28;19917;-47
2022/07/11 02:55:35;;;;;;;;;;;;;;;26.08;44.79;99557.19;2059505;28;19987;-47
2022/07/11 02:56:35;;;;;;;;;;;;;;;26.08;45.00;99557.19;2055989;28;19918;-48
2022/07/11 02:57:38;;;;;;;;;;;;;;;26.07;44.79;99555.50;2056193;28;20437;-47
2022/07/11 02:58:38;;;;;;;;;;;;;;;26.08;45.10;99562.69;2059041;28;19925;-48
2022/07/11 02:59:39;;;;;;;;;;;;;;;26.08;44.95;99562.69;2054082;28;20047;-48
2022/07/11 03:00:39;;;;;;;;;;;;;;;26.08;44.82;99557.19;2060437;28;19961;-49
2022/07/11 03:01:41;;;;;;;;;;;;;;;26.08;44.83;99561.88;2060721;28;20247;-48
2022/07/11 03:02:41;;;;;;;;;;;;;;;26.07;45.01;99566.53;2060461;28;19922;-51
2022/07/11 03:03:42;;;;;;;;;;;;;;;26.07;44.78;99569.31;2051617;28;19924;-50
2022/07/11 03:04:42;;;;;;;;;;;;;;;26.08;45.13;99570.16;2052991;28;19929;-50
2022/07/11 03:05:44;;;;;;;;;;;;;;;26.08;44.94;99572.91;2061256;28;19924;-49
2022/07/11 03:06:44;;;;;;;;;;;;;;;26.07;44.86;99566.53;2058159;28;19952;-48
2022/07/11 03:07:44;;;;;;;;;;;;;;;26.07;44.94;99566.53;2068233;28;19917;-49
2022/07/11 03:08:45;;;;;;;;;;;;;;;26.07;45.12;99571.22;2065876;28;19963;-48
2022/07/11 03:09:45;;;;;;;;;;;;;;;26.07;45.15;99571.22;2062182;28;20534;-48
2022/07/11 03:10:45;;;;;;;;;;;;;;;26.06;44.95;99570.34;2061100;28;19929;-48
2022/07/11 03:11:46;;;;;;;;;;;;;;;26.06;44.91;99564.81;2063830;28;20400;-48
2022/07/11 03:12:46;;;;;;;;;;;;;;;26.07;44.93;99571.22;2063162;28;20352;-50
2022/07/11 03:13:46;;;;;;;;;;;;;;;26.06;44.95;99564.81;2060690;28;19913;-49
2022/07/11 03:14:47;;;;;;;;;;;;;;;26.06;45.04;99563.97;2055966;28;21287;-48
2022/07/11 03:15:47;;;;;;;;;;;;;;;26.06;45.16;99575.88;2064050;28;20356;-47
2022/07/11 03:16:47;;;;;;;;;;;;;;;26.05;44.99;99571.41;2051583;28;19997;-47
2022/07/11 03:17:48;;;;;;;;;;;;;;;26.06;44.91;99567.59;2051937;28;20494;-49
2022/07/11 03:18:48;;;;;;;;;;;;;;;26.05;44.91;99568.66;2058330;28;19925;-47
2022/07/11 03:19:49;;;;;;;;;;;;;;;26.06;45.17;99569.50;2058165;28;20282;-49
2022/07/11 03:20:50;;;;;;;;;;;;;;;26.06;45.17;99570.34;2060387;28;19913;-48
2022/07/11 03:21:50;;;;;;;;;;;;;;;26.05;45.03;99568.66;2058288;28;19917;-48
2022/07/11 03:22:50;;;;;;;;;;;;;;;26.05;44.78;99565.91;2059339;28;20036;-48
2022/07/11 03:23:51;;;;;;;;;;;;;;;26.05;44.85;99571.41;2060348;28;19921;-48
2022/07/11 03:24:51;;;;;;;;;;;;;;;26.06;44.86;99564.81;2059400;28;19917;-49
2022/07/11 03:25:51;;;;;;;;;;;;;;;26.06;44.87;99563.97;2061314;28;19917;-48
2022/07/11 03:26:51;;;;;;;;;;;;;;;26.05;44.94;99576.94;2058718;28;19924;-47
2022/07/11 03:27:52;;;;;;;;;;;;;;;26.05;44.94;99570.56;2060744;28;19924;-50
2022/07/11 03:28:52;;;;;;;;;;;;;;;26.06;45.06;99569.50;2052009;28;19965;-47
2022/07/11 03:29:52;;;;;;;;;;;;;;;26.06;44.97;99561.22;2044144;28;19918;-48
2022/07/11 03:30:53;;;;;;;;;;;;;;;26.05;45.00;99562.28;2055410;28;19924;-48
2022/07/11 03:31:53;;;;;;;;;;;;;;;26.05;44.99;99571.41;2060142;28;19917;-49
2022/07/11 03:32:54;;;;;;;;;;;;;;;26.06;44.87;99567.59;2059568;28;19968;-50
2022/07/11 03:33:54;;;;;;;;;;;;;;;26.05;44.89;99557.59;2061643;28;19967;-48
2022/07/11 03:36:13;;;;;;;;;;;;;;;26.06;44.97;99558.44;2055011;28;19918;-48
2022/07/11 03:37:13;;;;;;;;;;;;;;;26.04;45.00;99561.44;2058772;28;19918;-50
2022/07/11 03:38:17;;;;;;;;;;;;;;;26.05;45.09;99563.13;2059531;28;19921;-48
2022/07/11 03:39:17;;;;;;;;;;;;;;;26.05;45.22;99560.38;2061256;28;19917;-48
2022/07/11 03:40:18;;;;;;;;;;;;;;;26.04;44.89;99564.19;2056242;28;20630;-48
2022/07/11 03:41:18;;;;;;;;;;;;;;;26.05;45.21;99567.81;2058408;28;20248;-48
2022/07/11 03:42:18;;;;;;;;;;;;;;;26.04;44.95;99569.72;2059936;28;19944;-48
2022/07/11 03:43:19;;;;;;;;;;;;;;;26.06;44.91;99569.50;2056117;28;20016;-48
2022/07/11 03:44:19;;;;;;;;;;;;;;;26.05;44.93;99573.34;2059412;28;19921;-48
2022/07/11 03:45:19;;;;;;;;;;;;;;;26.05;44.93;99573.34;2058480;28;19924;-48
2022/07/11 03:46:20;;;;;;;;;;;;;;;26.05;44.97;99574.19;2060073;28;19917;-47
2022/07/11 03:47:20;;;;;;;;;;;;;;;26.04;45.17;99569.72;2060551;28;20031;-48
2022/07/11 03:48:20;;;;;;;;;;;;;;;26.05;45.19;99574.19;2058110;28;20554;-49
2022/07/11 03:49:21;;;;;;;;;;;;;;;26.05;44.93;99578.84;2058552;28;20208;-47
2022/07/11 03:50:21;;;;;;;;;;;;;;;26.04;45.15;99578.00;2061244;28;19918;-48
2022/07/11 03:51:21;;;;;;;;;;;;;;;26.04;44.93;99575.25;2055391;28;19918;-47
2022/07/11 03:52:22;;;;;;;;;;;;;;;26.03;45.02;99576.28;2059330;28;20042;-48
2022/07/11 03:53:22;;;;;;;;;;;;;;;26.04;45.00;99575.25;2059162;28;20012;-48
2022/07/11 03:54:22;;;;;;;;;;;;;;;26.03;44.95;99570.75;2059605;28;20478;-51
2022/07/11 03:55:23;;;;;;;;;;;;;;;26.02;44.83;99574.59;2054516;28;19940;-48
2022/07/11 03:56:23;;;;;;;;;;;;;;;26.03;44.93;99573.53;2052375;28;19947;-47
2022/07/11 03:57:24;;;;;;;;;;;;;;;26.02;45.21;99577.38;2051851;28;19924;-48
2022/07/11 03:58:24;;;;;;;;;;;;;;;26.03;45.18;99573.53;2058459;28;19914;-48
2022/07/11 03:59:24;;;;;;;;;;;;;;;26.03;45.19;99576.28;2054197;28;19921;-49
2022/07/11 04:00:25;;;;;;;;;;;;;;;26.01;44.90;99572.88;2062573;28;19928;-48
2022/07/11 04:01:25;;;;;;;;;;;;;;;26.02;45.09;99574.59;2054722;28;20215;-48
2022/07/11 04:02:25;;;;;;;;;;;;;;;26.03;45.17;99575.44;2054551;28;20915;-49
2022/07/11 04:03:26;;;;;;;;;;;;;;;26.02;45.16;99573.75;2053148;28;19948;-48
2022/07/11 04:04:26;;;;;;;;;;;;;;;26.02;45.10;99574.59;2053659;28;19964;-48
2022/07/11 04:05:27;;;;;;;;;;;;;;;26.01;45.25;99572.88;2059986;28;20501;-47
2022/07/11 04:06:27;;;;;;;;;;;;;;;26.02;45.15;99574.59;2057206;28;20195;-48
2022/07/11 04:07:30;;;;;;;;;;;;;;;26.02;45.08;99579.28;2061287;28;19918;-48
2022/07/11 04:08:30;;;;;;;;;;;;;;;26.02;44.93;99577.38;2059349;28;19917;-47
2022/07/11 04:09:31;;;;;;;;;;;;;;;26.02;45.01;99574.59;2059561;28;19925;-48
2022/07/11 04:10:31;;;;;;;;;;;;;;;26.02;45.13;99577.38;2060436;28;19975;-48
2022/07/11 04:11:31;;;;;;;;;;;;;;;26.01;44.96;99572.88;2059631;28;19917;-48
2022/07/11 04:12:32;;;;;;;;;;;;;;;26.02;45.15;99580.13;2061275;28;19917;-48
2022/07/11 04:13:33;;;;;;;;;;;;;;;26.02;45.15;99577.38;2053414;28;19977;-49
2022/07/11 04:14:33;;;;;;;;;;;;;;;26.02;44.84;99582.88;2052297;28;20000;-48
2022/07/11 04:15:34;;;;;;;;;;;;;;;26.01;45.20;99578.41;2053067;28;20342;-51
2022/07/11 04:16:35;;;;;;;;;;;;;;;26.01;45.10;99578.41;2053496;28;20016;-51
2022/07/11 04:17:35;;;;;;;;;;;;;;;26.02;44.93;99580.13;2053043;28;19997;-49
2022/07/11 04:18:35;;;;;;;;;;;;;;;26.01;44.78;99581.16;2053274;28;19925;-49
2022/07/11 04:19:36;;;;;;;;;;;;;;;26.00;45.06;99585.00;2053661;28;19921;-48
2022/07/11 04:20:36;;;;;;;;;;;;;;;26.01;44.78;99583.94;2052862;28;19957;-48
2022/07/11 04:21:37;;;;;;;;;;;;;;;26.01;44.81;99574.81;2057344;28;19957;-51
2022/07/11 04:22:37;;;;;;;;;;;;;;;26.00;44.98;99582.25;2055421;28;19953;-49
2022/07/11 04:23:38;;;;;;;;;;;;;;;26.01;44.62;99583.09;2051714;28;20320;-48
2022/07/11 04:24:38;;;;;;;;;;;;;;;26.00;44.68;99581.41;2051062;28;20564;-49
2022/07/11 04:25:38;;;;;;;;;;;;;;;26.01;44.83;99583.09;2052101;28;20414;-47
2022/07/11 04:26:39;;;;;;;;;;;;;;;26.00;44.55;99579.47;2054820;28;19917;-49
2022/07/11 04:27:39;;;;;;;;;;;;;;;26.00;44.84;99582.25;2055650;28;19917;-49
2022/07/11 04:28:39;;;;;;;;;;;;;;;25.99;44.74;99582.44;2059959;28;20169;-48
2022/07/11 04:29:39;;;;;;;;;;;;;;;26.00;44.58;99581.41;2058090;28;19927;-47
2022/07/11 04:30:40;;;;;;;;;;;;;;;26.00;44.75;99581.41;2053666;28;20345;-48
2022/07/11 04:31:40;;;;;;;;;;;;;;;26.00;44.44;99581.41;2054528;28;19921;-48
2022/07/11 04:32:40;;;;;;;;;;;;;;;26.00;44.67;99586.91;2055625;28;19921;-48
2022/07/11 04:33:41;;;;;;;;;;;;;;;26.00;44.48;99587.75;2056771;28;20323;-48
2022/07/11 04:34:41;;;;;;;;;;;;;;;25.99;44.32;99586.06;2058628;28;20768;-50
2022/07/11 04:35:42;;;;;;;;;;;;;;;26.01;44.31;99591.38;2059727;28;20244;-50
2022/07/11 04:36:42;;;;;;;;;;;;;;;26.00;44.66;99587.75;2056838;28;19917;-48
2022/07/11 04:37:43;;;;;;;;;;;;;;;26.00;44.66;99593.28;2060491;28;20241;-47
2022/07/11 04:38:44;;;;;;;;;;;;;;;26.00;44.40;99587.75;2058778;28;20320;-51
2022/07/11 04:39:46;;;;;;;;;;;;;;;26.00;44.41;99587.75;2058345;28;19971;-49
2022/07/11 04:40:48;;;;;;;;;;;;;;;26.00;44.32;99593.28;2061081;28;20475;-49
2022/07/11 04:41:48;;;;;;;;;;;;;;;26.00;44.32;99593.28;2058766;28;20008;-47
2022/07/11 04:42:49;;;;;;;;;;;;;;;25.99;44.57;99586.06;2059002;28;20431;-47
2022/07/11 04:43:49;;;;;;;;;;;;;;;25.99;44.29;99588.84;2059920;28;19923;-47
2022/07/11 04:44:49;;;;;;;;;;;;;;;25.99;44.56;99590.72;2057385;28;19921;-49
2022/07/11 04:45:50;;;;;;;;;;;;;;;25.99;44.31;99588.84;2059628;28;20312;-51
2022/07/11 04:46:50;;;;;;;;;;;;;;;25.99;44.27;99590.72;2057982;28;20008;-48
2022/07/11 04:47:50;;;;;;;;;;;;;;;25.99;44.37;99588.84;2058846;28;20159;-47
2022/07/11 04:48:51;;;;;;;;;;;;;;;25.99;44.32;99594.34;2059848;28;20011;-50
2022/07/11 04:49:51;;;;;;;;;;;;;;;25.99;44.55;99594.34;2048002;28;19964;-50
2022/07/11 04:50:51;;;;;;;;;;;;;;;25.99;44.30;99588.84;2051290;28;20372;-48
2022/07/11 04:51:52;;;;;;;;;;;;;;;25.99;44.23;99596.25;2057601;28;19913;-48
2022/07/11 04:52:52;;;;;;;;;;;;;;;25.98;44.48;99594.56;2055107;28;19925;-48
2022/07/11 04:53:52;;;;;;;;;;;;;;;25.98;44.56;99595.41;2052241;28;20325;-48
2022/07/11 04:54:53;;;;;;;;;;;;;;;25.98;44.54;99595.41;2055341;28;19928;-47
2022/07/11 04:55:53;;;;;;;;;;;;;;;25.97;44.36;99596.47;2061124;28;19964;-48
2022/07/11 04:56:54;;;;;;;;;;;;;;;25.97;44.25;99598.34;2058174;28;20008;-48
2022/07/11 04:57:54;;;;;;;;;;;;;;;25.97;44.29;99593.72;2056328;28;19996;-50
2022/07/11 04:58:54;;;;;;;;;;;;;;;25.98;44.50;99594.56;2051752;28;20345;-49
2022/07/11 04:59:55;;;;;;;;;;;;;;;25.98;44.53;99600.06;2056962;28;20578;-48
2022/07/11 05:00:55;;;;;;;;;;;;;;;25.97;44.19;99599.22;2050060;28;19914;-48
2022/07/11 05:01:56;;;;;;;;;;;;;;;25.97;44.47;99604.75;2053465;28;19913;-48
2022/07/11 05:02:56;;;;;;;;;;;;;;;25.97;44.43;99599.22;2059189;28;19914;-48
2022/07/11 05:03:57;;;;;;;;;;;;;;;25.98;44.42;99602.84;2052301;28;19981;-50
2022/07/11 05:04:57;;;;;;;;;;;;;;;25.97;44.41;99610.28;2057400;28;19968;-49
2022/07/11 05:05:58;;;;;;;;;;;;;;;25.97;44.27;99610.28;2059045;28;20083;-49
2022/07/11 05:06:58;;;;;;;;;;;;;;;25.97;44.10;99610.28;2058241;28;19925;-49
2022/07/11 05:07:58;;;;;;;;;;;;;;;25.98;44.21;99611.97;2058225;28;19913;-47
2022/07/11 05:08:58;;;;;;;;;;;;;;;25.97;44.39;99610.28;2060736;28;19918;-47
2022/07/11 05:09:59;;;;;;;;;;;;;;;25.97;44.21;99604.75;2056312;28;20265;-49
2022/07/11 05:10:59;;;;;;;;;;;;;;;25.98;44.25;99611.97;2062492;28;20008;-50
2022/07/11 05:12:00;;;;;;;;;;;;;;;25.99;44.47;99607.28;2057648;28;20169;-48
2022/07/11 05:13:00;;;;;;;;;;;;;;;25.98;44.33;99611.97;2056776;28;20202;-50
2022/07/11 05:14:00;;;;;;;;;;;;;;;25.98;44.49;99616.66;2061247;28;20032;-48
2022/07/11 05:15:01;;;;;;;;;;;;;;;25.98;44.46;99611.97;2051985;28;20332;-51
2022/07/11 05:16:01;;;;;;;;;;;;;;;25.97;44.51;99610.28;2060184;28;20280;-48
2022/07/11 05:17:02;;;;;;;;;;;;;;;25.97;44.53;99610.28;2058220;28;20000;-49